Time;durP1;ratioP1;P1;durP2;ratioP2;P2;SDS_P1;SDS_P2;PMS_P1;PMS_P2;Temp;Humidity;BMP_temperature;BMP_pressure;BME280_temperature;BME280_humidity;BME280_pressure;Samples;Min_cycle;Max_cycle;Signal;HPM_P1;HPM_P2
2023/07/21 00:00:34;;;;;;;1.70;1.60;;;18.10;1.00;;;;;;5097697;28;20035;-61
2023/07/21 00:03:08;;;;;;;3.85;2.03;;;18.10;99.90;;;;;;5138453;28;20045;-62
2023/07/21 00:05:40;;;;;;;2.05;1.15;;;18.00;99.90;;;;;;5134907;28;20038;-61
2023/07/21 00:08:11;;;;;;;3.67;1.60;;;18.10;73.90;;;;;;5133057;28;20043;-61
2023/07/21 00:10:45;;;;;;;3.15;1.33;;;18.20;35.60;;;;;;5136590;28;20033;-64
2023/07/21 00:13:17;;;;;;;;;;;18.20;28.80;;;;;;5136078;28;20040;-61
2023/07/21 00:15:52;;;;;;;2.13;1.90;;;18.30;1.00;;;;;;5132624;28;20222;-62
2023/07/21 00:18:24;;;;;;;1.58;1.10;;;18.40;1.00;;;;;;5134659;28;20039;-60
2023/07/21 00:21:05;;;;;;;2.42;1.30;;;18.50;1.00;;;;;;5135839;28;20039;-59
2023/07/21 00:23:44;;;;;;;1.00;0.90;;;18.60;1.00;;;;;;5118266;28;20035;-62
2023/07/21 00:26:18;;;;;;;2.47;1.23;;;18.70;99.90;;;;;;5116081;28;20028;-60
2023/07/21 00:28:49;;;;;;;2.03;1.45;;;18.70;99.90;;;;;;5118696;28;20031;-60
2023/07/21 00:31:20;;;;;;;2.92;1.45;;;18.90;1.00;;;;;;5119110;28;20045;-60
2023/07/21 00:33:51;;;;;;;1.77;1.17;;;19.00;1.00;;;;;;5136195;28;20062;-60
2023/07/21 00:36:29;;;;;;;1.67;1.42;;;19.00;1.00;;;;;;5135907;28;20041;-61
2023/07/21 00:39:08;;;;;;;1.30;1.20;;;19.10;1.00;;;;;;5119593;28;20042;-63
2023/07/21 00:41:45;;;;;;;1.77;1.35;;;19.10;1.00;;;;;;5134716;28;20027;-59
2023/07/21 00:44:21;;;;;;;1.42;1.30;;;19.10;1.00;;;;;;5137046;28;20061;-64
2023/07/21 00:46:55;;;;;;;2.95;1.30;;;19.00;1.00;;;;;;5133995;28;20041;-61
2023/07/21 00:49:27;;;;;;;2.15;1.30;;;18.90;1.00;;;;;;5136235;28;20038;-62
2023/07/21 00:52:04;;;;;;;1.73;1.50;;;18.90;45.60;;;;;;5134948;28;20057;-60
2023/07/21 00:54:43;;;;;;;2.92;1.40;;;18.90;99.90;;;;;;5137965;28;20602;-61
2023/07/21 00:57:25;;;;;;;1.65;1.55;;;18.80;99.90;;;;;;5123814;28;20082;-64
2023/07/21 00:59:57;;;;;;;2.55;1.17;;;18.70;99.90;;;;;;5119233;29;20041;-63
2023/07/21 01:02:29;;;;;;;1.30;1.20;;;18.40;1.00;;;;;;5214462;22;20050;-68
2023/07/21 01:05:01;;;;;;;1.42;1.20;;;18.40;1.00;;;;;;5170702;28;20415;-68
2023/07/21 01:07:33;;;;;;;1.58;1.38;;;18.30;3.80;;;;;;5181508;28;20028;-66
2023/07/21 01:10:07;;;;;;;2.20;1.48;;;18.20;93.60;;;;;;5164864;28;20048;-67
2023/07/21 01:12:41;;;;;;;1.40;1.30;;;18.30;99.90;;;;;;5195691;28;20025;-67
2023/07/21 01:15:18;;;;;;;4.15;1.25;;;18.30;99.90;;;;;;5214974;28;20059;-68
2023/07/21 01:17:56;;;;;;;1.30;1.20;;;18.40;99.90;;;;;;5203018;28;20217;-66
2023/07/21 01:20:31;;;;;;;1.08;1.02;;;18.40;99.90;;;;;;5180982;28;20038;-68
2023/07/21 01:23:11;;;;;;;1.70;1.20;;;18.30;99.90;;;;;;5182020;28;20303;-66
2023/07/21 01:25:46;;;;;;;1.38;1.10;;;18.30;99.90;;;;;;5168874;28;20045;-68
2023/07/21 01:28:21;;;;;;;1.25;1.15;;;18.20;99.90;;;;;;5181009;28;20553;-67
2023/07/21 01:30:54;;;;;;;1.88;1.45;;;18.10;1.00;;;;;;5197646;28;20367;-65
2023/07/21 01:33:33;;;;;;;2.08;1.13;;;18.00;1.00;;;;;;5180535;28;20272;-68
2023/07/21 01:36:06;;;;;;;2.80;1.40;;;18.00;1.00;;;;;;5200695;28;20253;-67
2023/07/21 01:38:42;;;;;;;1.95;1.33;;;18.00;1.00;;;;;;5202190;28;20025;-68
2023/07/21 01:41:19;;;;;;;2.10;1.42;;;18.00;1.00;;;;;;5183938;28;20026;-67
2023/07/21 01:43:53;;;;;;;3.13;1.40;;;18.00;25.20;;;;;;5198041;28;20045;-68
2023/07/21 01:46:32;;;;;;;1.30;1.20;;;18.00;1.00;;;;;;5181606;28;20238;-69
2023/07/21 01:49:04;;;;;;;2.60;1.40;;;18.10;1.00;;;;;;5181670;28;20030;-67
2023/07/21 01:51:37;;;;;;;1.30;1.20;;;18.10;1.00;;;;;;5195745;28;20045;-69
2023/07/21 01:54:18;;;;;;;1.65;1.55;;;18.30;1.00;;;;;;5201583;28;20229;-68
2023/07/21 01:56:59;;;;;;;1.42;1.33;;;18.40;99.90;;;;;;5197254;28;20039;-68
2023/07/21 01:59:33;;;;;;;2.03;1.20;;;18.60;99.90;;;;;;5197922;28;20033;-69
2023/07/21 02:02:05;;;;;;;1.50;1.40;;;18.70;99.90;;;;;;5190446;28;20037;-68
2023/07/21 02:04:39;;;;;;;2.08;1.40;;;18.70;12.00;;;;;;5178924;28;20318;-68
2023/07/21 02:07:11;;;;;;;1.30;1.10;;;18.70;1.00;;;;;;5181104;28;20030;-67
2023/07/21 02:09:46;;;;;;;3.42;1.25;;;18.70;23.50;;;;;;5202684;28;20336;-66
2023/07/21 02:12:19;;;;;;;1.73;1.20;;;18.60;99.90;;;;;;5200276;28;20448;-69
2023/07/21 02:14:53;;;;;;;1.55;1.33;;;18.50;1.00;;;;;;5103287;28;20045;-68
2023/07/21 02:17:25;;;;;;;1.17;1.08;;;18.40;1.00;;;;;;5195928;28;20314;-66
2023/07/21 02:19:58;;;;;;;1.02;0.93;;;18.40;1.00;;;;;;5201861;28;20333;-68
2023/07/21 02:22:32;;;;;;;1.42;1.30;;;18.40;1.00;;;;;;5168907;28;20207;-68
2023/07/21 02:25:06;;;;;;;1.20;1.02;;;18.40;1.00;;;;;;5201662;28;20124;-69
2023/07/21 02:27:37;;;;;;;1.33;1.10;;;18.40;1.00;;;;;;5166732;28;20029;-69
2023/07/21 02:30:10;;;;;;;3.38;1.30;;;18.50;1.00;;;;;;5163723;28;20349;-66
2023/07/21 02:32:43;;;;;;;1.48;1.10;;;18.60;1.00;;;;;;5165879;28;20029;-69
2023/07/21 02:35:14;;;;;;;1.27;1.00;;;18.70;1.00;;;;;;5102072;28;20359;-69
2023/07/21 02:37:46;;;;;;;1.30;1.20;;;18.80;1.00;;;;;;5200205;28;20369;-67
2023/07/21 02:40:20;;;;;;;1.13;1.02;;;18.90;1.00;;;;;;5167425;28;20360;-67
2023/07/21 02:42:55;;;;;;;1.52;1.05;;;19.00;99.90;;;;;;5181659;28;20298;-68
2023/07/21 02:45:29;;;;;;;3.22;1.17;;;19.00;99.90;;;;;;5196572;28;20337;-67
2023/07/21 02:48:03;;;;;;;1.80;1.40;;;19.00;99.90;;;;;;5182934;28;20039;-68
2023/07/21 02:50:41;;;;;;;2.60;1.30;;;19.10;99.90;;;;;;5184577;28;20222;-68
2023/07/21 02:53:12;;;;;;;1.75;1.40;;;19.20;93.80;;;;;;5198180;28;20033;-67
2023/07/21 02:55:48;;;;;;;1.13;0.90;;;19.20;99.90;;;;;;5182424;28;20068;-67
2023/07/21 02:58:26;;;;;;;0.93;0.90;;;19.30;99.90;;;;;;5182357;28;20033;-67
2023/07/21 03:01:03;;;;;;;1.27;1.17;;;19.40;27.40;;;;;;5180401;28;20037;-68
2023/07/21 03:03:35;;;;;;;2.25;1.20;;;19.50;1.00;;;;;;5162367;28;20042;-66
2023/07/21 03:06:16;;;;;;;1.58;1.30;;;19.50;1.00;;;;;;5158530;28;20069;-67
2023/07/21 03:08:55;;;;;;;1.58;1.35;;;19.50;1.00;;;;;;5174356;28;20050;-68
2023/07/21 03:11:28;;;;;;;1.38;1.10;;;19.40;1.00;;;;;;5205346;28;20059;-70
2023/07/21 03:13:59;;;;;;;1.30;1.00;;;19.30;1.00;;;;;;5179502;28;20033;-67
2023/07/21 03:16:36;;;;;;;4.70;1.70;;;19.20;1.00;;;;;;5174698;28;20349;-69
2023/07/21 03:19:09;;;;;;;2.03;1.42;;;19.10;99.90;;;;;;5161301;28;20421;-68
2023/07/21 03:21:42;;;;;;;2.17;1.20;;;19.10;99.90;;;;;;5176146;28;20171;-67
2023/07/21 03:24:14;;;;;;;3.20;1.00;;;19.00;1.00;;;;;;5179132;28;20275;-69
2023/07/21 03:26:45;;;;;;;1.20;1.10;;;18.90;1.00;;;;;;5177298;28;20029;-68
2023/07/21 03:29:17;;;;;;;2.65;1.40;;;18.80;1.00;;;;;;5195068;28;20045;-69
2023/07/21 03:31:48;;;;;;;2.70;1.20;;;18.70;1.00;;;;;;5158644;28;20340;-68
2023/07/21 03:34:21;;;;;;;2.55;1.40;;;18.70;99.90;;;;;;5195187;28;20331;-69
2023/07/21 03:36:54;;;;;;;1.75;1.38;;;18.70;99.90;;;;;;5178048;28;20345;-68
2023/07/21 03:39:31;;;;;;;1.30;1.20;;;18.70;99.90;;;;;;5174046;28;20044;-70
2023/07/21 03:42:05;;;;;;;1.83;1.40;;;18.80;99.90;;;;;;5179367;28;20296;-68
2023/07/21 03:44:36;;;;;;;1.50;1.30;;;18.90;1.00;;;;;;5161148;28;20279;-67
2023/07/21 03:47:08;;;;;;;1.10;1.00;;;18.90;1.00;;;;;;5187304;28;20022;-68
2023/07/21 03:49:39;;;;;;;2.60;1.38;;;19.00;1.00;;;;;;5193158;28;20049;-68
2023/07/21 03:52:11;;;;;;;3.45;1.45;;;19.00;1.00;;;;;;5159747;28;20036;-69
2023/07/21 03:54:45;;;;;;;1.50;1.30;;;19.00;1.00;;;;;;5190993;28;20326;-68
2023/07/21 03:57:17;;;;;;;;;;;19.10;1.00;;;;;;5167281;28;20030;-68
2023/07/21 03:59:49;;;;;;;1.33;1.23;;;19.00;1.00;;;;;;5161667;28;20090;-69
2023/07/21 04:02:20;;;;;;;1.42;1.23;;;19.10;1.00;;;;;;5198882;28;20246;-69
2023/07/21 04:04:57;;;;;;;1.77;1.48;;;19.10;1.00;;;;;;5176658;28;20340;-68
2023/07/21 04:07:29;;;;;;;1.70;1.25;;;19.20;1.00;;;;;;5162207;28;20044;-69
2023/07/21 04:10:00;;;;;;;2.33;1.30;;;19.20;99.90;;;;;;5177457;28;20033;-68
2023/07/21 04:12:31;;;;;;;2.05;1.17;;;19.20;99.90;;;;;;5192982;28;20026;-68
2023/07/21 04:15:03;;;;;;;2.10;1.38;;;19.10;1.00;;;;;;5172553;28;20121;-69
2023/07/21 04:17:34;;;;;;;2.40;1.42;;;19.00;1.00;;;;;;5158003;28;20367;-68
2023/07/21 04:20:10;;;;;;;2.15;1.90;;;18.90;1.00;;;;;;5158835;28;20208;-70
2023/07/21 04:22:41;;;;;;;1.88;1.20;;;18.90;1.90;;;;;;5173431;28;20040;-69
2023/07/21 04:25:15;;;;;;;1.73;1.40;;;19.00;99.90;;;;;;5157508;28;20050;-68
2023/07/21 04:27:50;;;;;;;1.60;1.50;;;19.10;1.00;;;;;;5182372;28;20310;-70
2023/07/21 04:30:22;;;;;;;2.13;1.48;;;19.10;1.00;;;;;;5166681;28;20225;-69
2023/07/21 04:32:57;;;;;;;1.63;1.25;;;19.10;1.00;;;;;;5214229;28;20018;-67
2023/07/21 04:35:31;;;;;;;1.92;1.50;;;19.10;1.00;;;;;;5184177;28;20220;-65
2023/07/21 04:38:06;;;;;;;2.15;1.20;;;19.10;1.00;;;;;;5181873;28;20227;-68
2023/07/21 04:40:40;;;;;;;2.05;1.42;;;19.10;1.00;;;;;;5182258;28;20026;-66
2023/07/21 04:43:12;;;;;;;1.85;1.45;;;19.00;1.00;;;;;;5198369;28;20218;-68
2023/07/21 04:45:49;;;;;;;1.35;1.25;;;18.80;1.00;;;;;;5195674;28;20038;-68
2023/07/21 04:48:21;;;;;;;1.70;1.33;;;18.60;1.00;;;;;;5182867;28;20030;-68
2023/07/21 04:50:53;;;;;;;1.90;1.50;;;18.30;9.90;;;;;;5181419;28;20042;-68
2023/07/21 04:53:24;;;;;;;2.38;1.80;;;18.10;1.00;;;;;;5182984;28;20048;-68
2023/07/21 04:55:59;;;;;;;3.75;1.60;;;18.00;1.00;;;;;;5180631;28;20239;-68
2023/07/21 04:58:35;;;;;;;2.58;1.35;;;18.00;1.00;;;;;;5198134;28;20068;-68
2023/07/21 05:01:09;;;;;;;1.50;1.40;;;17.90;1.00;;;;;;5176696;28;20042;-67
2023/07/21 05:03:41;;;;;;;1.77;1.45;;;17.90;1.00;;;;;;5200216;28;20045;-67
2023/07/21 05:06:13;;;;;;;2.72;1.90;;;17.90;1.00;;;;;;5202683;28;20025;-67
2023/07/21 05:08:48;;;;;;;2.08;1.50;;;18.00;1.00;;;;;;5202538;28;20036;-68
2023/07/21 05:11:21;;;;;;;2.22;1.45;;;18.00;1.00;;;;;;5199401;28;20051;-69
2023/07/21 05:13:53;;;;;;;1.95;1.75;;;17.90;1.00;;;;;;5216906;28;20191;-69
2023/07/21 05:16:25;;;;;;;1.90;1.60;;;17.90;1.00;;;;;;5195893;28;20041;-68
2023/07/21 05:18:56;;;;;;;2.85;1.92;;;18.00;1.00;;;;;;5167575;28;20467;-69
2023/07/21 05:21:27;;;;;;;4.13;1.80;;;18.10;1.00;;;;;;5194754;28;20036;-69
2023/07/21 05:24:06;;;;;;;2.63;1.63;;;18.10;1.00;;;;;;5137100;28;20038;-69
2023/07/21 05:26:39;;;;;;;4.13;2.20;;;18.20;1.00;;;;;;5168063;28;20060;-67
2023/07/21 05:29:10;;;;;;;2.17;1.70;;;18.30;1.00;;;;;;5184517;28;20041;-68
2023/07/21 05:31:45;;;;;;;1.83;1.73;;;18.30;1.00;;;;;;5100830;28;20037;-67
2023/07/21 05:34:17;;;;;;;;;;;18.50;1.00;;;;;;5200052;28;20041;-68
2023/07/21 05:36:51;;;;;;;3.08;1.83;;;18.60;1.00;;;;;;5184530;28;19977;-67
2023/07/21 05:39:29;;;;;;;3.95;1.80;;;18.70;1.00;;;;;;5199493;28;20048;-68
2023/07/21 05:42:03;;;;;;;2.20;1.75;;;18.90;1.00;;;;;;5166364;28;20025;-68
2023/07/21 05:44:38;;;;;;;2.13;1.50;;;19.00;99.90;;;;;;5183372;28;20049;-69
2023/07/21 05:47:09;;;;;;;2.10;1.60;;;19.10;99.90;;;;;;5159945;28;20044;-66
2023/07/21 05:49:43;;;;;;;2.65;1.50;;;19.20;99.90;;;;;;5143930;28;20077;-68
2023/07/21 05:52:16;;;;;;;1.77;1.40;;;19.30;97.50;;;;;;5181282;28;20036;-66
2023/07/21 05:54:51;;;;;;;1.90;1.70;;;19.50;1.00;;;;;;5098487;28;20034;-66
2023/07/21 05:57:22;;;;;;;2.60;1.30;;;19.50;1.00;;;;;;5137012;28;20466;-66
2023/07/21 05:59:56;;;;;;;2.20;1.60;;;19.60;1.00;;;;;;5133418;28;20089;-67
2023/07/21 06:02:30;;;;;;;2.03;1.83;;;19.80;1.00;;;;;;5164271;28;20425;-67
2023/07/21 06:05:04;;;;;;;1.65;1.40;;;19.80;1.00;;;;;;5178776;28;20034;-67
2023/07/21 06:07:36;;;;;;;;;;;19.70;1.00;;;;;;5110507;28;20033;-66
2023/07/21 06:10:10;;;;;;;2.85;1.20;;;19.60;1.00;;;;;;5216124;28;20132;-67
2023/07/21 06:12:41;;;;;;;1.90;1.58;;;19.60;1.00;;;;;;5183172;28;20030;-67
2023/07/21 06:15:17;;;;;;;2.70;1.45;;;19.70;1.00;;;;;;5165759;28;20104;-68
2023/07/21 06:17:49;;;;;;;2.63;1.98;;;19.90;99.90;;;;;;5183326;28;20064;-66
2023/07/21 06:20:22;;;;;;;1.88;1.65;;;20.00;1.00;;;;;;5182270;28;20048;-66
2023/07/21 06:22:53;;;;;;;3.22;1.92;;;19.90;1.00;;;;;;5192213;28;20034;-63
2023/07/21 06:25:25;;;;;;;1.63;1.40;;;19.90;1.00;;;;;;5182609;28;20437;-66
2023/07/21 06:28:01;;;;;;;2.55;1.67;;;19.90;1.00;;;;;;5215156;28;20037;-66
2023/07/21 06:30:36;;;;;;;1.83;1.50;;;20.00;1.00;;;;;;5218486;28;20066;-66
2023/07/21 06:33:07;;;;;;;2.90;1.92;;;20.10;1.00;;;;;;5201617;28;20037;-66
2023/07/21 06:35:45;;;;;;;3.33;1.65;;;20.30;99.90;;;;;;5181771;28;20032;-66
2023/07/21 06:38:16;;;;;;;2.25;1.50;;;20.30;40.10;;;;;;5200152;28;20029;-66
2023/07/21 06:40:51;;;;;;;2.63;1.80;;;20.40;31.20;;;;;;5183314;28;20263;-67
2023/07/21 06:43:23;;;;;;;1.88;1.30;;;20.60;99.90;;;;;;5200147;28;20031;-69
2023/07/21 06:45:58;;;;;;;4.68;2.10;;;20.70;1.00;;;;;;5197164;28;20252;-67
2023/07/21 06:48:31;;;;;;;1.95;1.58;;;20.90;1.00;;;;;;5199181;28;20036;-68
2023/07/21 06:51:03;;;;;;;3.00;1.48;;;21.20;1.00;;;;;;5182008;28;20325;-67
2023/07/21 06:53:34;;;;;;;2.13;1.35;;;21.40;99.90;;;;;;5116204;28;20452;-67
2023/07/21 06:56:06;;;;;;;1.50;1.40;;;21.40;99.90;;;;;;5182748;28;20249;-68
2023/07/21 06:58:40;;;;;;;1.45;1.35;;;21.50;99.90;;;;;;5221611;28;20035;-66
2023/07/21 07:01:11;;;;;;;1.90;1.70;;;21.60;99.90;;;;;;5211252;28;20324;-66
2023/07/21 07:03:43;;;;;;;2.50;1.85;;;21.60;31.40;;;;;;5202617;28;20075;-65
2023/07/21 07:06:19;;;;;;;2.13;1.42;;;21.60;1.00;;;;;;5185479;28;20045;-66
2023/07/21 07:08:56;;;;;;;2.25;1.73;;;21.60;1.00;;;;;;5202233;28;20368;-67
2023/07/21 07:11:30;;;;;;;3.83;1.90;;;21.50;1.00;;;;;;5182173;28;20063;-67
2023/07/21 07:14:01;;;;;;;2.15;1.50;;;21.30;1.00;;;;;;5182665;28;20047;-68
2023/07/21 07:16:33;;;;;;;3.90;1.95;;;21.20;1.00;;;;;;5194124;28;20350;-67
2023/07/21 07:19:07;;;;;;;2.40;1.58;;;21.20;1.00;;;;;;5200005;28;20028;-67
2023/07/21 07:21:38;;;;;;;1.73;1.33;;;21.40;1.00;;;;;;5182644;28;20040;-66
2023/07/21 07:24:10;;;;;;;2.95;1.90;;;21.60;1.00;;;;;;5179491;28;20029;-67
2023/07/21 07:26:45;;;;;;;2.10;1.35;;;21.80;1.00;;;;;;5175238;28;21632;-68
2023/07/21 07:29:20;;;;;;;;;;;21.70;1.00;;;;;;5201019;28;20028;-66
2023/07/21 07:31:51;;;;;;;1.90;1.50;;;21.90;1.00;;;;;;5124862;28;20467;-68
2023/07/21 07:34:26;;;;;;;2.55;2.05;;;22.00;1.00;;;;;;5182064;28;20363;-67
2023/07/21 07:37:00;;;;;;;1.95;1.60;;;22.10;1.00;;;;;;5181617;28;20044;-67
2023/07/21 07:39:35;;;;;;;2.65;1.65;;;22.30;1.00;;;;;;5131956;28;20041;-67
2023/07/21 07:42:07;;;;;;;2.10;1.55;;;22.60;1.00;;;;;;5190030;28;20048;-66
2023/07/21 07:44:44;;;;;;;1.67;1.58;;;22.80;1.00;;;;;;5179832;28;20026;-65
2023/07/21 07:47:17;;;;;;;4.88;1.88;;;23.10;99.90;;;;;;5063237;28;20215;-66
2023/07/21 07:49:49;;;;;;;2.05;1.70;;;23.20;99.90;;;;;;5098049;28;20216;-66
2023/07/21 07:52:20;;;;;;;3.47;2.10;;;23.20;99.90;;;;;;5147326;28;20028;-68
2023/07/21 07:54:57;;;;;;;1.75;1.60;;;23.10;2.50;;;;;;5194773;28;20401;-67
2023/07/21 07:57:31;;;;;;;3.58;2.05;;;23.40;99.90;;;;;;5182335;28;20030;-67
2023/07/21 08:00:08;;;;;;;2.53;1.67;;;23.70;36.00;;;;;;5201376;28;20303;-67
2023/07/21 08:02:39;;;;;;;1.70;1.38;;;23.90;1.00;;;;;;5184249;28;20060;-66
2023/07/21 08:05:11;;;;;;;3.13;1.67;;;23.90;1.00;;;;;;5204264;28;20037;-67
2023/07/21 08:07:42;;;;;;;8.55;2.63;;;24.00;1.00;;;;;;5189215;28;20063;-65
2023/07/21 08:10:14;;;;;;;3.17;1.48;;;23.90;1.00;;;;;;5154359;28;20058;-66
2023/07/21 08:12:45;;;;;;;3.20;1.70;;;23.80;1.00;;;;;;5184884;28;20231;-68
2023/07/21 08:15:17;;;;;;;2.42;2.10;;;23.70;1.00;;;;;;5101439;28;20040;-69
2023/07/21 08:17:49;;;;;;;2.10;1.88;;;23.60;1.00;;;;;;5175889;28;20041;-67
2023/07/21 08:20:21;;;;;;;2.75;1.65;;;23.50;1.00;;;;;;5188967;28;20047;-67
2023/07/21 08:22:55;;;;;;;3.30;1.88;;;23.40;1.00;;;;;;5206621;28;20511;-65
2023/07/21 08:25:26;;;;;;;2.63;2.25;;;23.20;1.00;;;;;;5188801;28;20021;-66
2023/07/21 08:28:03;;;;;;;4.07;2.10;;;22.90;1.00;;;;;;5221359;28;20040;-67
2023/07/21 08:30:36;;;;;;;3.38;1.95;;;22.80;1.00;;;;;;5190631;28;20041;-66
2023/07/21 08:33:09;;;;;;;6.22;2.50;;;22.60;1.00;;;;;;5205845;28;20214;-66
2023/07/21 08:35:41;;;;;;;5.07;2.45;;;22.50;1.00;;;;;;5206465;28;20037;-67
2023/07/21 08:38:12;;;;;;;9.73;2.60;;;22.20;1.00;;;;;;5204685;28;20021;-67
2023/07/21 08:40:50;;;;;;;3.08;2.63;;;22.10;1.00;;;;;;5203195;28;20036;-66
2023/07/21 08:43:21;;;;;;;3.97;1.75;;;21.70;99.90;;;;;;5184665;28;20033;-67
2023/07/21 08:45:57;;;;;;;3.70;2.30;;;21.70;1.00;;;;;;5198711;28;20313;-67
2023/07/21 08:48:28;;;;;;;2.80;2.28;;;21.70;1.00;;;;;;5202139;28;20229;-66
2023/07/21 08:51:00;;;;;;;3.63;2.40;;;21.70;1.00;;;;;;5184617;28;20041;-67
2023/07/21 08:53:32;;;;;;;3.72;2.30;;;21.70;1.00;;;;;;5201208;28;20067;-67
2023/07/21 08:56:09;;;;;;;3.83;2.78;;;21.60;1.00;;;;;;5102490;28;20033;-66
2023/07/21 08:58:43;;;;;;;5.43;2.50;;;21.60;1.00;;;;;;5180159;28;20052;-68
2023/07/21 09:01:17;;;;;;;4.90;2.97;;;21.60;1.00;;;;;;5184347;28;20029;-68
2023/07/21 09:03:49;;;;;;;3.50;2.40;;;21.70;1.00;;;;;;5200866;28;20041;-67
2023/07/21 09:06:20;;;;;;;3.15;2.00;;;21.70;1.00;;;;;;5185005;28;20318;-65
2023/07/21 09:08:54;;;;;;;2.80;2.00;;;21.80;1.00;;;;;;5199965;28;20017;-65
2023/07/21 09:11:26;;;;;;;3.45;1.92;;;22.10;1.00;;;;;;5143919;28;20045;-67
2023/07/21 09:13:59;;;;;;;1.73;1.63;;;22.40;1.00;;;;;;5164482;28;20044;-65
2023/07/21 09:16:33;;;;;;;2.63;2.23;;;22.80;99.90;;;;;;5093146;28;20627;-66
2023/07/21 09:19:18;;;;;;;2.40;2.08;;;23.30;99.90;;;;;;5128169;28;20318;-63
2023/07/21 09:21:56;;;;;;;;;;;23.40;99.90;;;;;;5146520;28;20036;-65
2023/07/21 09:24:27;;;;;;;2.03;1.75;;;23.80;77.10;;;;;;5186510;28;20059;-66
2023/07/21 09:27:17;;;;;;;2.00;1.80;;;24.20;1.00;;;;;;5209518;28;20037;-66
2023/07/21 09:29:57;;;;;;;2.70;1.95;;;24.50;1.00;;;;;;5223992;28;20029;-67
2023/07/21 09:32:37;;;;;;;1.90;1.67;;;25.20;1.00;;;;;;5182078;28;20045;-66
2023/07/21 09:35:10;;;;;;;3.97;2.30;;;25.80;1.00;;;;;;5198071;28;20033;-67
2023/07/21 09:37:41;;;;;;;1.88;1.60;;;26.60;99.90;;;;;;5193619;28;20223;-67
2023/07/21 09:40:15;;;;;;;2.53;1.75;;;27.40;99.90;;;;;;5098474;28;20041;-67
2023/07/21 09:42:55;;;;;;;2.85;1.75;;;27.70;1.00;;;;;;5184520;28;20068;-68
2023/07/21 09:45:27;;;;;;;2.03;1.58;;;28.20;1.00;;;;;;5178386;28;20249;-66
2023/07/21 09:48:01;;;;;;;3.13;1.55;;;28.30;1.00;;;;;;5099481;28;20052;-69
2023/07/21 09:50:35;;;;;;;1.80;1.70;;;28.70;1.00;;;;;;5181198;28;20029;-67
2023/07/21 09:53:09;;;;;;;2.42;1.83;;;28.90;1.00;;;;;;5181512;28;20199;-66
2023/07/21 09:55:42;;;;;;;3.67;1.38;;;29.30;1.00;;;;;;5163275;28;20294;-68
2023/07/21 09:58:19;;;;;;;3.43;1.83;;;29.10;1.00;;;;;;5178841;28;20041;-67
2023/07/21 10:00:56;;;;;;;1.70;1.50;;;29.20;1.00;;;;;;5180610;28;20048;-67
2023/07/21 10:03:29;;;;;;;1.50;1.40;;;29.30;1.00;;;;;;5179179;28;20042;-69
2023/07/21 10:06:02;;;;;;;2.58;1.98;;;28.60;99.90;;;;;;5149358;28;20040;-67
2023/07/21 10:08:36;;;;;;;3.20;2.10;;;28.30;1.00;;;;;;5191214;28;20043;-67
2023/07/21 10:11:19;;;;;;;2.13;1.55;;;27.90;1.00;;;;;;5130994;28;20045;-68
2023/07/21 10:13:54;;;;;;;2.13;1.77;;;27.50;1.00;;;;;;5178904;28;20041;-68
2023/07/21 10:16:31;;;;;;;2.17;1.98;;;27.40;1.00;;;;;;5159616;28;20044;-67
2023/07/21 10:19:08;;;;;;;2.58;1.85;;;27.10;1.00;;;;;;5125381;28;20456;-68
2023/07/21 10:21:50;;;;;;;2.03;1.90;;;27.20;1.00;;;;;;5179868;28;20052;-68
2023/07/21 10:24:27;;;;;;;6.70;1.98;;;27.40;1.00;;;;;;5129469;28;20030;-68
2023/07/21 10:27:08;;;;;;;1.98;1.60;;;27.50;1.00;;;;;;5123989;28;20047;-67
2023/07/21 10:29:45;;;;;;;2.88;1.55;;;27.50;1.00;;;;;;5163417;28;20227;-66
2023/07/21 10:32:21;;;;;;;2.95;2.00;;;27.70;1.00;;;;;;5169700;28;20054;-69
2023/07/21 10:34:55;;;;;;;3.33;1.67;;;27.90;1.00;;;;;;5179641;28;20048;-68
2023/07/21 10:37:30;;;;;;;2.58;2.00;;;28.10;1.00;;;;;;5163109;28;20167;-67
2023/07/21 10:40:09;;;;;;;3.47;1.20;;;28.30;1.00;;;;;;5163056;28;20132;-68
2023/07/21 10:42:41;;;;;;;2.28;1.70;;;28.20;1.00;;;;;;5180266;28;20258;-68
2023/07/21 10:45:16;;;;;;;2.60;1.80;;;28.10;1.00;;;;;;5160304;28;20034;-68
2023/07/21 10:47:47;;;;;;;2.60;1.85;;;28.10;1.00;;;;;;5163958;28;20199;-67
2023/07/21 10:50:18;;;;;;;2.72;2.05;;;27.40;1.00;;;;;;5163244;28;20364;-67
2023/07/21 10:52:53;;;;;;;2.08;1.73;;;27.00;1.00;;;;;;5183061;28;20326;-67
2023/07/21 10:55:32;;;;;;;3.83;1.98;;;26.30;1.00;;;;;;5201172;28;20029;-68
2023/07/21 10:58:06;;;;;;;1.75;1.52;;;26.50;1.00;;;;;;5214856;28;20021;-69
2023/07/21 11:00:49;;;;;;;3.95;1.90;;;26.60;1.00;;;;;;5098814;28;20025;-69
2023/07/21 11:03:20;;;;;;;1.98;1.77;;;26.90;1.00;;;;;;5180273;28;20338;-67
2023/07/21 11:05:54;;;;;;;2.45;1.48;;;27.30;1.00;;;;;;5097379;28;20033;-69
2023/07/21 11:08:27;;;;;;;1.55;1.38;;;27.60;1.00;;;;;;5129419;28;20046;-69
2023/07/21 11:11:00;;;;;;;1.92;1.05;;;27.70;1.00;;;;;;5095803;28;20045;-69
2023/07/21 11:13:32;;;;;;;1.90;1.13;;;27.50;1.00;;;;;;5129572;28;20048;-67
2023/07/21 11:16:06;;;;;;;2.28;1.08;;;27.10;1.00;;;;;;5157440;28;20319;-68
2023/07/21 11:18:43;;;;;;;1.30;1.20;;;26.90;1.00;;;;;;5197214;28;20018;-67
2023/07/21 11:21:18;;;;;;;1.92;1.15;;;26.80;1.00;;;;;;5199606;28;20029;-68
2023/07/21 11:24:04;;;;;;;1.50;1.40;;;26.50;1.00;;;;;;5181622;28;20063;-67
2023/07/21 11:26:40;;;;;;;1.70;1.13;;;26.50;1.00;;;;;;5202237;28;20039;-66
2023/07/21 11:29:15;;;;;;;1.30;1.20;;;27.00;1.00;;;;;;5175849;28;20039;-67
2023/07/21 11:31:46;;;;;;;1.30;1.20;;;27.60;1.00;;;;;;5179261;28;20037;-67
2023/07/21 11:34:26;;;;;;;1.30;1.00;;;28.90;1.00;;;;;;5195257;28;20017;-68
2023/07/21 11:37:02;;;;;;;1.42;0.98;;;29.70;1.00;;;;;;5178514;28;20040;-67
2023/07/21 11:39:33;;;;;;;1.50;1.15;;;30.50;1.00;;;;;;5180462;28;20029;-67
2023/07/21 11:42:06;;;;;;;1.15;0.98;;;29.50;1.00;;;;;;5179390;28;20097;-68
2023/07/21 11:44:38;;;;;;;1.45;1.20;;;29.60;1.00;;;;;;5216344;28;20037;-70
2023/07/21 11:47:16;;;;;;;1.25;1.02;;;29.50;1.00;;;;;;5183597;28;20025;-68
2023/07/21 11:49:55;;;;;;;1.75;1.65;;;28.80;99.90;;;;;;5204738;28;20033;-67
2023/07/21 11:52:32;;;;;;;1.30;1.20;;;28.80;99.90;;;;;;5184456;28;20033;-70
2023/07/21 11:55:05;;;;;;;1.10;1.00;;;29.50;99.90;;;;;;5185815;28;20044;-68
2023/07/21 11:57:39;;;;;;;1.65;1.10;;;31.50;99.90;;;;;;5212323;28;20024;-67
2023/07/21 12:00:11;;;;;;;1.48;1.30;;;31.80;99.90;;;;;;5222292;28;20134;-67
2023/07/21 12:02:48;;;;;;;1.30;1.20;;;31.70;99.90;;;;;;5172019;28;20049;-68
2023/07/21 12:05:22;;;;;;;1.40;1.02;;;32.00;99.90;;;;;;5198608;28;20257;-68
2023/07/21 12:07:56;;;;;;;2.00;1.33;;;31.60;99.90;;;;;;5102245;28;20037;-68
2023/07/21 12:10:30;;;;;;;1.27;1.17;;;32.40;99.90;;;;;;5195016;28;20026;-69
2023/07/21 12:13:03;;;;;;;1.10;1.08;;;32.80;99.90;;;;;;5084018;28;20254;-69
2023/07/21 12:15:36;;;;;;;1.20;1.10;;;33.30;99.90;;;;;;5164577;28;20375;-68
2023/07/21 12:18:08;;;;;;;1.50;1.40;;;33.80;95.70;;;;;;5215335;28;20129;-71
2023/07/21 12:20:40;;;;;;;1.80;1.30;;;35.40;91.00;;;;;;5200693;28;20025;-68
2023/07/21 12:23:12;;;;;;;1.02;1.02;;;34.90;1.00;;;;;;5200698;28;20381;-68
2023/07/21 12:25:47;;;;;;;1.65;1.55;;;33.50;1.00;;;;;;5182369;28;20354;-69
2023/07/21 12:28:20;;;;;;;1.88;1.27;;;31.70;1.00;;;;;;5186471;28;20047;-68
2023/07/21 12:30:52;;;;;;;0.97;0.83;;;31.30;1.00;;;;;;5199573;28;20036;-66
2023/07/21 12:33:23;;;;;;;2.03;1.48;;;30.80;1.00;;;;;;5182387;28;20055;-68
2023/07/21 12:35:57;;;;;;;1.38;1.25;;;30.00;1.00;;;;;;5199057;28;20047;-67
2023/07/21 12:38:28;;;;;;;1.42;1.27;;;29.40;1.00;;;;;;5116225;28;20025;-68
2023/07/21 12:41:00;;;;;;;2.40;1.38;;;29.30;1.00;;;;;;5182289;28;20352;-68
2023/07/21 12:43:31;;;;;;;2.15;1.40;;;29.40;1.00;;;;;;5116255;28;20171;-68
2023/07/21 12:46:03;;;;;;;5.35;1.10;;;30.50;1.00;;;;;;5197398;28;20040;-67
2023/07/21 12:48:37;;;;;;;1.75;1.23;;;31.60;1.00;;;;;;5182324;28;20037;-67
2023/07/21 12:51:10;;;;;;;1.50;1.27;;;32.80;1.00;;;;;;5186226;28;20472;-67
2023/07/21 12:53:42;;;;;;;2.83;1.33;;;32.50;1.00;;;;;;5202543;28;20033;-68
2023/07/21 12:56:16;;;;;;;1.30;1.20;;;31.20;1.00;;;;;;5204773;28;20022;-67
2023/07/21 12:58:47;;;;;;;1.92;1.52;;;30.60;1.00;;;;;;5206783;28;20042;-68
2023/07/21 13:01:19;;;;;;;1.95;1.27;;;30.70;1.00;;;;;;5174186;28;20029;-68
2023/07/21 13:03:53;;;;;;;1.75;1.35;;;30.30;1.00;;;;;;5216947;28;20198;-73
2023/07/21 13:06:27;;;;;;;1.85;1.17;;;31.30;1.00;;;;;;5200598;28;20034;-68
2023/07/21 13:09:06;;;;;;;1.23;1.13;;;32.20;1.00;;;;;;5201051;28;20032;-69
2023/07/21 13:11:40;;;;;;;1.20;1.10;;;33.30;1.00;;;;;;5121773;28;20063;-70
2023/07/21 13:14:11;;;;;;;;;;;34.00;1.00;;;;;;5201408;28;20346;-67
2023/07/21 13:16:42;;;;;;;1.33;1.20;;;34.20;1.00;;;;;;5200907;28;19911;-68
2023/07/21 13:19:13;;;;;;;2.78;1.33;;;34.50;1.00;;;;;;5200309;28;20029;-69
2023/07/21 13:21:44;;;;;;;1.30;1.20;;;32.80;1.00;;;;;;5217079;28;20036;-69
2023/07/21 13:24:16;;;;;;;1.05;0.95;;;31.60;1.00;;;;;;5199962;28;20063;-68
2023/07/21 13:26:48;;;;;;;1.20;1.10;;;32.10;1.00;;;;;;5215997;28;20033;-69
2023/07/21 13:29:19;;;;;;;1.73;1.10;;;34.10;1.00;;;;;;5200325;28;20029;-67